Time;durP1;ratioP1;P1;durP2;ratioP2;P2;SDS_P1;SDS_P2;PMS_P1;PMS_P2;Temp;Humidity;BMP_temperature;BMP_pressure;BME280_temperature;BME280_humidity;BME280_pressure;Samples;Min_cycle;Max_cycle;Signal;HPM_P1;HPM_P2
2021/12/24 00:01:38;;;;;;;33.47;22.35;;;;;;;-1.99;74.95;98359.78;5085463;28;20086;-65
2021/12/24 00:04:10;;;;;;;34.25;23.70;;;;;;;-1.98;75.11;98338.97;5084467;28;20045;-65
2021/12/24 00:06:42;;;;;;;31.60;23.30;;;;;;;-2.28;74.92;98292.03;5085226;28;20074;-65
2021/12/24 00:09:21;;;;;;;30.67;21.73;;;;;;;-1.94;74.71;98344.97;5085060;28;20041;-65
2021/12/24 00:11:58;;;;;;;30.15;21.88;;;;;;;-1.92;74.77;98330.19;5085163;28;20041;-65
2021/12/24 00:14:32;;;;;;;28.98;21.55;;;;;;;-1.92;74.76;98350.97;5085407;28;20041;-66
2021/12/24 00:17:05;;;;;;;31.25;22.70;;;;;;;-2.18;74.42;98294.41;5085567;28;20044;-65
2021/12/24 00:19:45;;;;;;;33.60;23.38;;;;;;;-1.89;74.19;98334.47;5084765;28;20068;-65
2021/12/24 00:22:43;;;;;;;32.75;22.45;;;;;;;-1.88;74.26;98339.63;5085036;28;20044;-65
2021/12/24 00:36:35;;;;;;;33.78;21.27;;;;;;;-1.93;75.03;98252.31;5084862;28;20350;-65
2021/12/24 00:39:08;;;;;;;36.40;24.73;;;;;;;-1.93;74.89;98242.78;5085115;28;20048;-65
2021/12/24 00:41:40;;;;;;;31.42;20.63;;;;;;;-1.89;74.81;98240.97;5084853;28;20296;-64
2021/12/24 00:44:12;;;;;;;38.70;24.25;;;;;;;-1.92;75.46;98239.31;5084748;28;20047;-65
2021/12/24 00:46:46;;;;;;;34.28;24.48;;;;;;;-1.95;75.66;98244.56;5084624;28;20240;-65
2021/12/24 00:49:18;;;;;;;31.92;23.33;;;;;;;-1.98;75.39;98257.63;5084734;28;20044;-65
2021/12/24 00:52:06;;;;;;;35.60;23.50;;;;;;;-1.98;75.44;98252.44;5084867;28;20062;-65
2021/12/24 00:57:25;;;;;;;34.22;23.65;;;;;;;-2.01;75.94;98237.78;5086656;28;20047;-66
2021/12/24 00:59:56;;;;;;;33.45;23.55;;;;;;;-2.01;76.06;98237.78;5088466;28;20052;-66
2021/12/24 01:02:27;;;;;;;37.47;26.20;;;;;;;-2.24;76.28;98172.53;5088500;28;20059;-66
2021/12/24 01:04:56;;;;;;;37.92;25.15;;;;;;;-1.98;76.68;98216.94;5088285;28;20062;-65
2021/12/24 01:07:26;;;;;;;37.50;26.88;;;;;;;-1.95;76.67;98226.41;5088104;28;20072;-65
2021/12/24 01:09:56;;;;;;;40.63;25.30;;;;;;;-1.90;77.02;98223.69;5087998;28;20340;-65
2021/12/24 01:12:27;;;;;;;38.88;22.88;;;;;;;-1.86;76.84;98231.38;5088295;28;20045;-67
2021/12/24 01:14:57;;;;;;;34.22;22.75;;;;;;;-1.78;75.90;98241.59;5088341;28;20059;-67
2021/12/24 01:17:36;;;;;;;41.35;25.30;;;;;;;-1.76;77.04;98229.41;5088217;28;20048;-67
2021/12/24 01:20:18;;;;;;;37.05;24.15;;;;;;;-1.74;77.31;98228.50;5087857;28;20097;-66
2021/12/24 01:25:45;;;;;;;33.67;22.00;;;;;;;-1.59;76.88;98208.22;5088108;28;20090;-66
2021/12/24 01:39:54;;;;;;;46.35;33.10;;;;;;;-1.20;77.91;98214.16;5087806;28;20090;-66
2021/12/24 01:42:44;;;;;;;30.10;22.63;;;;;;;-1.12;77.80;98215.66;5087447;28;20036;-66
2021/12/24 01:45:22;;;;;;;31.65;22.70;;;;;;;-1.04;78.20;98198.09;5087425;28;20040;-66
2021/12/24 01:47:57;;;;;;;28.77;19.98;;;;;;;-0.96;77.79;98195.34;5087657;28;20086;-65
2021/12/24 01:50:34;;;;;;;21.38;15.52;;;;;;;-0.65;80.90;98186.66;5087492;28;20087;-66
2021/12/24 01:53:07;;;;;;;18.60;12.35;;;;;;;-0.32;80.91;98182.22;5087273;28;20289;-66
2021/12/24 01:55:40;;;;;;;17.17;12.82;;;;;;;0.01;80.73;98173.38;5086529;28;20225;-66
2021/12/24 01:58:12;;;;;;;12.32;10.07;;;;;;;0.28;80.99;98151.63;5087206;28;20048;-67
2021/12/24 02:00:49;;;;;;;15.40;11.98;;;;;;;0.68;81.54;98142.47;5087188;28;20091;-66
2021/12/24 02:03:21;;;;;;;12.73;9.27;;;;;;;0.88;81.59;98118.28;5087417;28;20044;-66
2021/12/24 02:05:55;;;;;;;12.27;8.27;;;;;;;1.21;81.89;98148.38;5087011;28;20040;-66
2021/12/24 02:08:27;;;;;;;9.68;7.18;;;;;;;1.51;81.11;98132.47;5086551;28;20041;-67
2021/12/24 02:10:59;;;;;;;9.98;7.20;;;;;;;1.57;81.43;98090.47;5086893;28;20358;-66
2021/12/24 02:13:31;;;;;;;10.70;7.35;;;;;;;2.12;79.83;98110.03;5087187;28;20048;-67
2021/12/24 02:16:14;;;;;;;8.25;6.85;;;;;;;2.30;78.80;98120.66;5086852;28;20044;-66
2021/12/24 02:30:07;;;;;;;9.90;5.93;;;;;;;3.30;77.47;98089.22;5086765;28;20212;-67
2021/12/24 02:32:39;;;;;;;9.02;6.18;;;;;;;3.38;77.10;98072.22;5086725;28;20059;-66
2021/12/24 02:35:12;;;;;;;9.57;6.78;;;;;;;3.46;76.82;98077.09;5086176;28;20040;-66
2021/12/24 02:37:46;;;;;;;9.20;6.15;;;;;;;3.54;76.65;98064.50;5086498;28;20059;-66
2021/12/24 02:40:19;;;;;;;8.47;6.03;;;;;;;3.61;75.91;98059.81;5086702;28;20048;-64
2021/12/24 02:42:54;;;;;;;7.88;5.78;;;;;;;3.65;76.24;98050.88;5086541;28;20574;-64
2021/12/24 02:45:31;;;;;;;8.00;5.25;;;;;;;3.81;76.10;98052.69;5086475;28;20040;-65
2021/12/24 02:48:34;;;;;;;9.30;5.43;;;;;;;3.89;75.57;98039.22;5086613;28;20235;-64
2021/12/24 02:53:58;;;;;;;7.78;5.47;;;;;;;3.87;75.71;98004.38;5086079;28;20193;-64
2021/12/24 02:56:32;;;;;;;;;;;;;;;4.16;76.39;98048.34;5086812;28;20045;-64
2021/12/24 02:59:06;;;;;;;8.27;5.80;;;;;;;4.27;75.24;98039.97;5085998;28;19916;-64
2021/12/24 03:01:40;;;;;;;7.03;5.07;;;;;;;4.34;75.33;98043.13;5086248;28;20044;-65
2021/12/24 03:04:13;;;;;;;9.43;6.20;;;;;;;4.15;74.78;98009.94;5086221;28;20044;-64
2021/12/24 03:06:48;;;;;;;6.70;4.43;;;;;;;3.00;74.26;97796.53;5086128;28;20041;-65
2021/12/24 03:09:23;;;;;;;7.85;5.38;;;;;;;4.22;73.61;97954.59;5086130;28;20045;-64
2021/12/24 03:11:55;;;;;;;8.85;6.22;;;;;;;4.75;73.60;98026.09;5085738;28;20085;-65
2021/12/24 03:14:27;;;;;;;9.07;6.47;;;;;;;4.75;73.38;98026.09;5085775;28;20044;-65
2021/12/24 03:17:01;;;;;;;6.90;5.50;;;;;;;4.76;73.24;98029.56;5086048;28;20040;-65
2021/12/24 03:19:34;;;;;;;8.60;5.60;;;;;;;4.79;73.20;98051.25;5084935;28;20052;-65
2021/12/24 03:22:14;;;;;;;7.45;5.95;;;;;;;4.82;73.01;98029.25;5085971;28;20048;-66
2021/12/24 03:24:48;;;;;;;9.05;6.25;;;;;;;4.88;72.70;98025.44;5085896;28;20105;-65
2021/12/24 03:27:22;;;;;;;8.45;5.78;;;;;;;4.93;72.31;98020.81;5085601;28;20044;-65
2021/12/24 03:29:55;;;;;;;9.93;5.28;;;;;;;4.97;72.02;98011.84;5085588;28;20138;-65
2021/12/24 03:32:28;;;;;;;8.43;6.05;;;;;;;4.96;72.08;98000.50;5085593;28;20040;-65
2021/12/24 03:35:00;;;;;;;9.80;5.95;;;;;;;4.96;72.12;98018.03;5085536;28;20082;-65
2021/12/24 03:37:30;;;;;;;8.85;5.88;;;;;;;5.01;71.99;98005.50;5085507;28;20335;-66
2021/12/24 03:40:03;;;;;;;8.65;6.72;;;;;;;5.04;72.00;98000.09;5085986;28;20064;-66
2021/12/24 03:42:31;;;;;;;9.57;6.43;;;;;;;5.04;71.87;97998.31;5084643;28;20119;-65
2021/12/24 03:45:09;;;;;;;10.25;6.97;;;;;;;5.06;71.83;97995.59;5085424;28;20083;-65
2021/12/24 03:47:42;;;;;;;10.15;5.75;;;;;;;5.03;72.22;97987.88;5085701;28;20338;-65
2021/12/24 03:50:14;;;;;;;11.23;7.13;;;;;;;5.07;71.74;97989.41;5085597;28;20040;-65
2021/12/24 03:53:05;;;;;;;10.82;6.55;;;;;;;5.10;71.62;98002.38;5085699;28;20041;-65
2021/12/24 03:55:38;;;;;;;9.55;6.93;;;;;;;5.08;71.63;97994.59;5085321;28;20041;-66
2021/12/24 03:58:10;;;;;;;8.20;6.35;;;;;;;5.11;71.56;98014.59;5085668;28;20041;-65
2021/12/24 04:00:42;;;;;;;8.43;6.05;;;;;;;5.11;71.67;97997.03;5085288;28;20142;-65
2021/12/24 04:03:14;;;;;;;7.07;5.05;;;;;;;5.16;71.61;97988.91;5085309;28;20041;-65
2021/12/24 04:05:47;;;;;;;8.55;6.13;;;;;;;5.17;71.62;98005.53;5085292;28;20090;-65
2021/12/24 04:08:20;;;;;;;10.57;7.20;;;;;;;4.98;71.48;97959.25;5085285;28;20040;-65
2021/12/24 04:10:53;;;;;;;8.05;6.07;;;;;;;5.20;71.35;97982.56;5085133;28;20358;-65
2021/12/24 04:13:26;;;;;;;9.02;6.68;;;;;;;5.23;71.32;97987.66;5085404;28;20049;-65
2021/12/24 04:15:58;;;;;;;9.82;6.15;;;;;;;5.23;71.33;97977.13;5085439;28;20087;-65
2021/12/24 04:18:41;;;;;;;9.05;6.88;;;;;;;5.27;71.38;97970.78;5085288;28;20040;-66
2021/12/24 04:26:54;;;;;;;8.10;6.15;;;;;;;5.38;71.46;97972.81;5085065;28;20091;-66
2021/12/24 04:29:28;;;;;;;9.15;6.30;;;;;;;5.43;71.18;97963.75;5085011;28;20040;-65
2021/12/24 04:32:09;;;;;;;8.30;6.10;;;;;;;5.45;71.07;97966.28;5088431;28;20041;-65
2021/12/24 04:34:45;;;;;;;11.00;6.78;;;;;;;5.48;71.06;97970.50;5089042;28;20045;-65
2021/12/24 04:51:27;;;;;;;10.27;6.88;;;;;;;5.54;70.73;98006.97;5088353;28;20347;-65
2021/12/24 05:02:42;;;;;;;11.05;7.57;;;;;;;5.47;71.84;98008.22;5088262;28;20102;-66
2021/12/24 05:05:19;;;;;;;10.35;6.63;;;;;;;5.47;72.29;98001.19;5088028;28;20067;-65
2021/12/24 05:10:49;;;;;;;10.88;6.43;;;;;;;5.48;72.80;98002.91;5079405;28;20300;-65
2021/12/24 05:13:23;;;;;;;12.57;6.53;;;;;;;5.52;73.04;98006.19;5088367;28;20044;-66
2021/12/24 05:16:05;;;;;;;9.00;6.43;;;;;;;5.52;73.02;97995.69;5088058;28;20082;-65
2021/12/24 05:19:02;;;;;;;10.85;7.03;;;;;;;5.51;73.28;98005.34;5088071;28;20090;-65
2021/12/24 05:21:36;;;;;;;9.02;5.35;;;;;;;5.52;73.21;97987.81;5087869;28;20098;-66
2021/12/24 05:24:12;;;;;;;10.68;6.68;;;;;;;5.54;72.91;97994.66;5088161;28;20090;-65
2021/12/24 05:26:46;;;;;;;11.45;7.00;;;;;;;5.56;72.88;97982.28;5087825;28;20041;-65
2021/12/24 05:29:19;;;;;;;9.25;6.75;;;;;;;5.62;72.70;97976.69;5087698;28;20041;-65
2021/12/24 05:31:53;;;;;;;8.40;6.68;;;;;;;5.63;72.43;97964.38;5087629;28;20045;-65
2021/12/24 05:34:25;;;;;;;9.83;7.00;;;;;;;5.66;72.60;97998.38;5087698;28;20094;-66
2021/12/24 05:36:58;;;;;;;10.07;6.75;;;;;;;5.71;72.48;97991.09;5087867;28;20086;-65
2021/12/24 05:39:30;;;;;;;8.43;6.65;;;;;;;5.73;72.33;97994.47;5087904;28;20044;-65
2021/12/24 05:42:02;;;;;;;11.00;5.93;;;;;;;5.79;72.21;97994.13;5086754;28;20067;-66
2021/12/24 05:44:34;;;;;;;7.80;5.82;;;;;;;5.84;71.84;97992.06;5087442;28;20090;-65
2021/12/24 05:47:08;;;;;;;8.00;6.00;;;;;;;5.86;71.80;97979.69;5087734;28;20048;-65
2021/12/24 05:49:41;;;;;;;8.55;6.43;;;;;;;5.94;71.65;97982.72;5087718;28;20045;-65
2021/12/24 05:52:13;;;;;;;9.40;5.82;;;;;;;6.01;71.43;97965.66;5087322;28;20090;-65
2021/12/24 05:54:46;;;;;;;9.88;5.93;;;;;;;6.04;71.39;97973.34;5087277;28;20041;-66
2021/12/24 05:57:19;;;;;;;7.38;4.95;;;;;;;6.09;71.28;97958.16;5087299;28;20044;-66
2021/12/24 05:59:51;;;;;;;8.43;6.20;;;;;;;6.13;71.34;97958.81;5087241;28;20044;-65
2021/12/24 06:02:25;;;;;;;7.47;5.20;;;;;;;6.20;71.00;97956.66;5087178;28;20049;-66
2021/12/24 06:04:57;;;;;;;7.30;5.47;;;;;;;6.24;70.81;97985.34;5087145;28;20040;-66
2021/12/24 06:07:29;;;;;;;7.70;5.10;;;;;;;6.29;70.68;97966.63;5087036;28;20045;-65
2021/12/24 06:10:02;;;;;;;11.15;5.13;;;;;;;6.32;70.67;97964.66;5087008;28;20044;-66
2021/12/24 06:12:34;;;;;;;6.68;5.20;;;;;;;6.38;70.44;97966.94;5087336;28;20048;-66
2021/12/24 06:15:07;;;;;;;7.72;5.28;;;;;;;6.43;70.32;97962.25;5086959;28;20229;-67
2021/12/24 06:17:38;;;;;;;7.45;5.28;;;;;;;6.50;70.14;97975.88;5087099;28;20055;-67
2021/12/24 06:20:12;;;;;;;6.90;4.75;;;;;;;6.53;70.06;97969.59;5086805;28;20059;-66
2021/12/24 06:22:40;;;;;;;6.63;4.82;;;;;;;6.58;70.05;97956.97;5087014;28;20107;-67
2021/12/24 06:25:11;;;;;;;6.05;4.85;;;;;;;6.59;69.98;97956.03;5086696;28;20066;-66
2021/12/24 06:27:40;;;;;;;7.45;4.95;;;;;;;6.42;69.93;97931.59;5086689;28;20040;-67
2021/12/24 06:30:13;;;;;;;8.00;5.13;;;;;;;6.64;69.94;97961.88;5086861;28;20040;-66
2021/12/24 06:32:42;;;;;;;7.55;4.70;;;;;;;6.67;69.78;97972.22;5086553;28;20075;-67
2021/12/24 06:35:11;;;;;;;6.50;5.38;;;;;;;6.69;69.85;97976.44;5086793;28;20097;-67
2021/12/24 06:37:41;;;;;;;7.47;5.50;;;;;;;6.74;69.72;97978.81;5086436;28;20044;-66
2021/12/24 06:40:12;;;;;;;8.20;5.18;;;;;;;6.73;69.77;97975.31;5086662;28;20040;-66
2021/12/24 06:42:42;;;;;;;7.93;4.35;;;;;;;5.40;69.74;97739.75;5086487;28;20208;-66
2021/12/24 06:45:12;;;;;;;5.60;3.90;;;;;;;6.78;69.85;97974.19;5086172;28;20043;-66
2021/12/24 06:47:44;;;;;;;9.07;5.03;;;;;;;6.82;69.77;97975.72;5086537;28;20040;-66
2021/12/24 06:50:12;;;;;;;6.63;4.93;;;;;;;6.85;69.92;97978.16;5086230;28;20297;-66
2021/12/24 06:52:43;;;;;;;6.50;4.50;;;;;;;6.84;70.05;97971.22;5086340;28;20048;-66
2021/12/24 06:55:14;;;;;;;8.75;4.28;;;;;;;6.81;69.96;97980.16;5086327;28;20045;-66
2021/12/24 06:57:44;;;;;;;6.78;4.57;;;;;;;6.90;69.93;97965.56;5086065;28;20082;-67
2021/12/24 07:00:16;;;;;;;5.53;4.07;;;;;;;6.90;70.03;97978.72;5086201;28;20119;-66
2021/12/24 07:02:46;;;;;;;6.53;4.28;;;;;;;6.90;69.94;97984.00;5086034;28;20355;-66
2021/12/24 07:05:14;;;;;;;6.60;4.80;;;;;;;5.89;69.92;97818.28;5086998;28;20052;-67
2021/12/24 07:07:44;;;;;;;7.15;4.05;;;;;;;6.98;69.93;97981.75;5085909;28;20036;-66
2021/12/24 07:10:15;;;;;;;5.30;3.80;;;;;;;7.03;69.83;97974.41;5085735;28;20063;-66
2021/12/24 07:12:45;;;;;;;6.50;4.03;;;;;;;7.11;69.64;97958.94;5085716;28;20040;-66
2021/12/24 07:15:16;;;;;;;5.60;3.72;;;;;;;7.14;69.56;97965.81;5085789;28;20221;-67
2021/12/24 07:17:47;;;;;;;5.95;3.45;;;;;;;7.15;69.54;97959.59;5086047;28;20109;-66
2021/12/24 07:20:16;;;;;;;6.22;3.97;;;;;;;7.19;69.59;97951.41;5085591;28;20049;-67
2021/12/24 07:22:46;;;;;;;6.05;3.88;;;;;;;7.22;69.56;97947.72;5085917;28;20090;-67
2021/12/24 07:25:17;;;;;;;5.75;4.05;;;;;;;7.25;69.59;97958.91;5085890;28;20048;-66
2021/12/24 07:27:46;;;;;;;5.03;3.22;;;;;;;7.26;69.79;97949.22;5085544;28;20327;-66
2021/12/24 07:30:18;;;;;;;4.47;2.80;;;;;;;7.32;69.79;97954.94;5084890;28;20040;-66
2021/12/24 07:32:49;;;;;;;4.18;3.15;;;;;;;7.43;69.54;97956.09;5085509;28;20077;-66
2021/12/24 07:35:18;;;;;;;3.83;2.63;;;;;;;7.49;69.63;97955.69;5086403;28;20127;-67
2021/12/24 07:37:47;;;;;;;4.60;3.17;;;;;;;7.67;69.21;97943.94;5085546;28;20040;-66
2021/12/24 07:40:18;;;;;;;5.35;2.80;;;;;;;7.71;69.21;97940.16;5085396;28;20296;-66
2021/12/24 07:42:48;;;;;;;3.78;2.50;;;;;;;7.74;69.09;97928.56;5085666;28;20054;-67
2021/12/24 07:45:18;;;;;;;4.15;2.50;;;;;;;7.86;69.07;97933.88;5085435;28;20086;-66
2021/12/24 07:48:06;;;;;;;4.30;2.60;;;;;;;7.89;68.85;97933.66;5085451;28;20048;-66
2021/12/24 07:53:29;;;;;;;4.90;2.40;;;;;;;8.00;68.67;97931.16;5085309;28;20063;-66
2021/12/24 07:56:01;;;;;;;3.60;2.60;;;;;;;8.04;68.88;97937.06;5085388;28;20044;-67
2021/12/24 07:58:33;;;;;;;3.50;2.50;;;;;;;8.05;68.71;97946.66;5085589;28;20086;-67
2021/12/24 08:01:05;;;;;;;4.68;2.50;;;;;;;8.05;68.68;97932.63;5085603;28;20193;-67
2021/12/24 08:03:39;;;;;;;4.60;3.28;;;;;;;8.08;68.57;97943.81;5085263;28;20089;-67
2021/12/24 08:06:11;;;;;;;5.15;2.95;;;;;;;8.11;68.39;97948.06;5087420;28;20243;-67
2021/12/24 08:08:43;;;;;;;6.50;3.10;;;;;;;8.14;68.42;97938.13;5089482;28;20040;-67
2021/12/24 08:11:15;;;;;;;3.35;2.50;;;;;;;8.16;68.07;97953.88;5088513;28;20040;-67
2021/12/24 08:13:48;;;;;;;5.53;2.85;;;;;;;8.15;68.38;97947.75;5089453;28;20044;-67
2021/12/24 08:16:20;;;;;;;4.50;2.28;;;;;;;8.20;68.20;97968.53;5089415;28;20304;-67
2021/12/24 08:18:54;;;;;;;6.20;2.53;;;;;;;8.24;68.57;97968.22;5088272;28;20041;-66
2021/12/24 08:21:27;;;;;;;3.90;2.72;;;;;;;8.26;68.57;97987.44;5089393;28;20044;-67
2021/12/24 08:23:59;;;;;;;3.63;2.45;;;;;;;8.26;68.96;97968.13;5088486;28;20114;-67
2021/12/24 08:26:32;;;;;;;5.68;2.67;;;;;;;8.23;69.35;97949.88;5089322;28;20040;-67
2021/12/24 08:29:04;;;;;;;5.13;2.80;;;;;;;8.21;69.58;97957.03;5088552;28;20209;-67
2021/12/24 08:31:38;;;;;;;5.03;2.40;;;;;;;8.19;69.83;97951.88;5088893;28;20044;-67
2021/12/24 08:34:11;;;;;;;4.03;3.33;;;;;;;8.21;69.77;97938.56;5088729;28;20044;-67
2021/12/24 08:36:43;;;;;;;4.07;2.78;;;;;;;7.88;70.08;97900.31;5088990;28;20044;-67
2021/12/24 08:39:19;;;;;;;3.83;2.63;;;;;;;8.16;70.09;97932.75;5089107;28;20044;-67
2021/12/24 08:41:54;;;;;;;5.85;2.83;;;;;;;8.15;70.16;97938.97;5087856;28;20088;-67
2021/12/24 08:44:29;;;;;;;3.95;3.05;;;;;;;8.13;70.05;97970.75;5088576;28;20090;-66
2021/12/24 08:47:04;;;;;;;4.97;2.47;;;;;;;8.08;70.14;97943.81;5088751;28;20086;-67
2021/12/24 08:49:38;;;;;;;4.65;2.80;;;;;;;8.13;69.83;97925.03;5088332;28;20086;-67
2021/12/24 08:52:10;;;;;;;3.92;2.45;;;;;;;8.15;69.53;97920.50;5088315;28;20048;-67
2021/12/24 08:54:42;;;;;;;3.53;2.17;;;;;;;8.15;69.37;97945.09;5088631;28;20277;-67
2021/12/24 08:57:14;;;;;;;3.85;2.42;;;;;;;8.20;69.18;97926.31;5088585;28;20343;-66
2021/12/24 08:59:46;;;;;;;3.92;2.40;;;;;;;8.18;69.31;97944.91;5088394;28;20086;-67
2021/12/24 09:02:19;;;;;;;6.07;2.45;;;;;;;8.24;68.93;97935.72;5088381;28;20045;-67
2021/12/24 09:04:52;;;;;;;3.70;2.05;;;;;;;8.29;68.68;97933.59;5087513;28;20107;-67
2021/12/24 09:07:24;;;;;;;4.40;2.42;;;;;;;8.32;68.40;97907.00;5087219;28;20044;-66
2021/12/24 09:09:56;;;;;;;4.25;2.15;;;;;;;8.33;68.07;97908.69;5087943;28;20293;-67
2021/12/24 09:12:29;;;;;;;3.45;2.15;;;;;;;8.40;68.02;97912.59;5088133;28;20040;-67
2021/12/24 09:15:04;;;;;;;4.47;2.50;;;;;;;8.42;67.66;97904.56;5088026;28;20150;-67
2021/12/24 09:17:36;;;;;;;3.65;2.40;;;;;;;8.45;67.41;97897.28;5086834;28;20041;-67
2021/12/24 09:20:12;;;;;;;5.55;2.40;;;;;;;8.52;67.37;97895.06;5087731;28;20313;-67
2021/12/24 09:22:47;;;;;;;5.22;2.90;;;;;;;8.55;67.37;97882.47;5087596;28;20044;-67
2021/12/24 09:25:21;;;;;;;4.38;2.30;;;;;;;7.80;67.30;97760.19;5087783;28;20040;-67
2021/12/24 09:27:49;;;;;;;3.72;2.20;;;;;;;8.37;67.12;97815.13;5087699;28;20107;-66
2021/12/24 09:30:20;;;;;;;3.45;2.05;;;;;;;8.64;66.74;97870.44;5087884;28;20040;-67
2021/12/24 09:32:50;;;;;;;3.13;2.10;;;;;;;8.68;66.92;97875.38;5087515;28;20041;-67
2021/12/24 09:35:24;;;;;;;2.80;1.90;;;;;;;8.74;66.46;97876.75;5087811;28;20099;-67
2021/12/24 09:37:55;;;;;;;5.53;2.50;;;;;;;7.23;66.01;97623.53;5087410;28;20042;-66
2021/12/24 09:40:26;;;;;;;4.45;2.10;;;;;;;8.86;66.53;97859.19;5087440;28;20046;-66
2021/12/24 09:42:56;;;;;;;2.85;1.95;;;;;;;8.89;65.92;97867.72;5087480;28;20040;-66
2021/12/24 09:45:26;;;;;;;3.38;2.05;;;;;;;8.90;66.06;97865.94;5087903;28;20239;-67
2021/12/24 09:47:56;;;;;;;4.25;2.13;;;;;;;8.92;66.04;97882.50;5087079;28;20060;-67
2021/12/24 09:50:29;;;;;;;3.25;2.03;;;;;;;8.92;65.86;97879.88;5087308;28;20052;-66
2021/12/24 09:52:57;;;;;;;3.45;1.90;;;;;;;9.00;65.59;97877.53;5087071;28;20048;-66
2021/12/24 09:55:30;;;;;;;3.35;2.03;;;;;;;8.99;65.53;97863.47;5087342;28;20048;-66
2021/12/24 09:58:02;;;;;;;4.57;2.33;;;;;;;9.01;65.87;97887.13;5086590;28;20040;-66
2021/12/24 10:00:35;;;;;;;8.93;2.65;;;;;;;8.69;65.24;97815.47;5087165;28;20090;-67
2021/12/24 10:03:07;;;;;;;2.95;2.25;;;;;;;9.00;65.46;97881.00;5087178;28;20293;-66
2021/12/24 10:05:43;;;;;;;3.40;1.70;;;;;;;9.03;65.24;97864.09;5086611;28;20358;-66
2021/12/24 10:08:19;;;;;;;4.32;2.13;;;;;;;9.06;65.34;97863.03;5086649;28;20082;-66
2021/12/24 10:10:54;;;;;;;3.92;2.25;;;;;;;9.07;65.69;97867.34;5086813;28;20082;-66
2021/12/24 10:13:34;;;;;;;2.72;1.90;;;;;;;9.06;65.17;97877.09;5086871;28;20296;-66
2021/12/24 10:16:09;;;;;;;3.17;1.98;;;;;;;9.11;65.28;97867.03;5086795;28;20389;-67
2021/12/24 10:18:44;;;;;;;3.65;2.33;;;;;;;9.12;65.24;97879.28;5086712;28;20093;-67
2021/12/24 10:21:19;;;;;;;3.03;1.70;;;;;;;9.08;65.29;97876.97;5086850;28;20224;-67
2021/12/24 10:23:54;;;;;;;3.67;2.42;;;;;;;9.07;65.71;97888.50;5086678;28;20048;-67
2021/12/24 10:26:29;;;;;;;3.70;1.88;;;;;;;9.08;65.04;97869.88;5086458;28;20239;-67
2021/12/24 10:29:04;;;;;;;4.30;2.17;;;;;;;9.08;65.13;97890.19;5085602;28;20041;-66
2021/12/24 10:31:43;;;;;;;4.78;2.58;;;;;;;8.14;64.58;97719.13;5086366;28;20041;-67
2021/12/24 10:34:26;;;;;;;3.03;1.90;;;;;;;9.13;65.20;97870.41;5086360;28;20090;-67
2021/12/24 10:37:18;;;;;;;3.17;1.98;;;;;;;9.19;64.81;97882.31;5086326;28;20357;-67
2021/12/24 10:39:53;;;;;;;4.97;2.83;;;;;;;9.20;65.43;97884.88;5086076;28;20098;-66
2021/12/24 10:42:31;;;;;;;4.03;2.30;;;;;;;9.22;64.81;97890.91;5086019;28;20040;-67
2021/12/24 10:45:07;;;;;;;4.30;2.47;;;;;;;9.23;65.41;97891.75;5085543;28;20044;-67
2021/12/24 10:47:41;;;;;;;3.33;1.88;;;;;;;9.24;65.18;97870.50;5086173;28;20041;-67
2021/12/24 10:50:27;;;;;;;4.82;2.42;;;;;;;8.67;65.35;97802.38;5085887;28;20044;-67
2021/12/24 10:53:16;;;;;;;4.75;2.05;;;;;;;9.49;64.86;97874.84;5085226;28;20331;-67
2021/12/24 10:55:50;;;;;;;4.95;2.13;;;;;;;9.54;64.86;97877.16;5085892;28;20044;-66
2021/12/24 10:58:24;;;;;;;2.90;1.90;;;;;;;9.53;65.01;97863.09;5085727;28;20044;-67
2021/12/24 11:00:59;;;;;;;5.10;2.47;;;;;;;9.55;65.03;97868.25;5085065;28;20350;-66
2021/12/24 11:03:34;;;;;;;5.22;2.45;;;;;;;9.51;64.86;97903.81;5085215;28;20086;-67
2021/12/24 11:06:08;;;;;;;4.15;2.90;;;;;;;9.51;64.90;97896.75;5085942;28;20090;-66
2021/12/24 11:08:41;;;;;;;3.67;2.15;;;;;;;9.50;64.82;97891.56;5086170;28;20098;-66
2021/12/24 11:11:17;;;;;;;4.15;2.33;;;;;;;9.50;65.02;97895.03;5085217;28;20086;-66
2021/12/24 11:13:50;;;;;;;2.95;1.88;;;;;;;9.50;65.04;97895.03;5085607;28;20044;-67
2021/12/24 11:16:23;;;;;;;4.22;2.45;;;;;;;9.46;65.09;97879.53;5085707;28;20045;-67
2021/12/24 11:19:00;;;;;;;3.92;2.47;;;;;;;9.46;65.13;97883.00;5085765;28;20106;-68
2021/12/24 11:21:33;;;;;;;3.60;2.63;;;;;;;9.46;65.40;97872.44;5085057;28;20037;-67
2021/12/24 11:24:07;;;;;;;3.53;2.17;;;;;;;9.45;65.94;97872.53;5084532;28;20052;-67
2021/12/24 11:26:50;;;;;;;3.95;2.45;;;;;;;9.37;65.93;97874.88;5085490;28;20041;-67
2021/12/24 11:29:22;;;;;;;3.33;1.90;;;;;;;9.34;65.96;97868.00;5085467;28;20090;-67
2021/12/24 11:31:56;;;;;;;4.32;2.30;;;;;;;9.35;66.08;97884.72;5085574;28;20040;-67
2021/12/24 11:34:29;;;;;;;4.67;2.93;;;;;;;9.27;66.24;97891.41;5085763;28;20055;-67
2021/12/24 11:37:01;;;;;;;3.85;2.42;;;;;;;9.25;66.22;97869.53;5085843;28;20040;-67
2021/12/24 11:39:35;;;;;;;4.60;2.25;;;;;;;9.23;65.92;97873.25;5085144;28;20040;-67
2021/12/24 11:42:10;;;;;;;3.20;2.30;;;;;;;9.25;66.23;97895.97;5085057;28;20086;-67
2021/12/24 11:44:43;;;;;;;3.53;2.10;;;;;;;9.20;66.12;97882.25;5085276;28;20048;-67
2021/12/24 11:47:15;;;;;;;5.28;2.95;;;;;;;9.15;65.94;97900.19;5085346;28;20040;-67
2021/12/24 11:49:48;;;;;;;3.53;2.40;;;;;;;9.15;65.92;97896.72;5085685;28;20052;-67
2021/12/24 11:52:20;;;;;;;3.70;2.28;;;;;;;9.12;65.46;97928.66;5085619;28;20048;-67
2021/12/24 11:54:55;;;;;;;3.97;2.22;;;;;;;9.10;65.48;97885.63;5085204;28;20182;-67
2021/12/24 11:57:27;;;;;;;;;;;;;;;9.07;65.23;97894.63;5085925;28;20048;-67
2021/12/24 12:00:10;;;;;;;3.25;1.90;;;;;;;9.07;65.50;97880.56;5085203;28;20201;-67
2021/12/24 12:02:45;;;;;;;3.05;2.08;;;;;;;9.02;65.81;97891.47;5085090;28;20247;-67
2021/12/24 12:05:22;;;;;;;3.05;1.90;;;;;;;9.03;65.90;97879.09;5084804;28;20091;-67
2021/12/24 12:08:36;;;;;;;4.35;2.25;;;;;;;9.00;65.37;97877.53;5084924;28;20090;-68
2021/12/24 12:11:20;;;;;;;3.55;2.45;;;;;;;9.00;65.78;97888.94;5084984;28;20040;-67
2021/12/24 12:13:55;;;;;;;5.57;3.13;;;;;;;8.97;65.83;97893.59;5085255;28;20098;-67
2021/12/24 12:16:48;;;;;;;4.45;3.00;;;;;;;8.97;65.87;97880.38;5084689;28;20044;-67
2021/12/24 12:19:26;;;;;;;3.55;2.15;;;;;;;9.00;65.85;97888.09;5084805;28;20056;-67
2021/12/24 12:22:17;;;;;;;3.88;2.20;;;;;;;8.99;65.36;97873.19;5084843;28;20041;-68
2021/12/24 12:27:39;;;;;;;3.13;2.00;;;;;;;8.90;65.69;97887.06;5084478;28;20296;-67
2021/12/24 12:30:28;;;;;;;5.05;2.30;;;;;;;8.86;65.50;97885.59;5084754;28;20082;-67
2021/12/24 12:33:10;;;;;;;3.30;2.08;;;;;;;8.86;65.56;97878.53;5085005;28;20051;-66
2021/12/24 12:35:48;;;;;;;3.30;2.28;;;;;;;8.87;65.48;97874.91;5084641;28;20094;-67
2021/12/24 12:38:39;;;;;;;3.30;2.25;;;;;;;8.88;65.61;97881.06;5084749;28;20086;-67
2021/12/24 12:41:23;;;;;;;4.30;2.97;;;;;;;8.84;65.40;97892.78;5084566;28;20063;-67
2021/12/24 12:43:58;;;;;;;4.28;2.60;;;;;;;8.84;66.07;97880.44;5084649;28;20040;-66
2021/12/24 12:46:33;;;;;;;3.42;2.08;;;;;;;8.83;66.12;97877.88;5084342;28;20085;-66
2021/12/24 12:49:07;;;;;;;4.80;2.53;;;;;;;8.57;66.53;97838.34;5084439;28;20094;-66
2021/12/24 12:51:52;;;;;;;3.88;2.22;;;;;;;8.80;66.35;97884.25;5084744;28;20045;-66
2021/12/24 12:54:38;;;;;;;3.70;2.42;;;;;;;8.75;66.29;97873.16;5088129;28;20044;-66
2021/12/24 12:57:23;;;;;;;4.45;2.50;;;;;;;8.89;68.08;97888.88;5087984;28;20182;-65
2021/12/24 13:00:20;;;;;;;4.18;2.97;;;;;;;9.03;67.22;97876.47;5087870;28;20044;-65
2021/12/24 13:03:11;;;;;;;4.85;2.38;;;;;;;9.15;66.65;97863.19;5087873;28;20086;-65
2021/12/24 13:06:04;;;;;;;6.05;2.50;;;;;;;9.08;67.38;97880.47;5087752;28;20243;-65
2021/12/24 13:08:38;;;;;;;4.28;2.95;;;;;;;9.08;66.10;97861.97;5087530;28;20052;-65
2021/12/24 13:11:12;;;;;;;;;;;;;;;9.11;65.61;97882.03;5087982;28;20174;-65
2021/12/24 13:13:54;;;;;;;4.85;3.28;;;;;;;9.15;65.33;97894.91;5088192;28;19920;-65
2021/12/24 13:16:33;;;;;;;4.75;2.38;;;;;;;8.68;65.11;97819.91;5087514;28;20086;-67
2021/12/24 13:19:25;;;;;;;3.85;2.60;;;;;;;9.13;64.78;97878.31;5086292;28;20194;-67
2021/12/24 13:24:51;;;;;;;3.33;2.38;;;;;;;8.98;65.04;97872.34;5087524;28;20094;-67
2021/12/24 13:27:27;;;;;;;4.03;2.38;;;;;;;8.93;65.57;97868.34;5087572;28;20040;-67
2021/12/24 13:30:13;;;;;;;3.38;2.42;;;;;;;8.89;65.10;97874.81;5087813;28;20090;-66
2021/12/24 13:32:49;;;;;;;4.05;2.20;;;;;;;8.85;65.27;97871.53;5087299;28;20040;-67
2021/12/24 13:35:23;;;;;;;3.50;2.30;;;;;;;8.81;65.59;97880.66;5087427;28;20048;-67
2021/12/24 13:37:57;;;;;;;3.75;2.20;;;;;;;8.80;65.66;97888.69;5087490;28;20036;-67